首页
METAR-TAF:

METAR-TAF

机场 :

邁諾特, 北达科他州, 美国

纬度: 48-15-34N, 经度: 101-16-49W, 海拔: 523米

当前天气观测

该预报发布于30分钟前的02:54 UTC
风速10节,风向南转南东
温度 23°C
湿度 61%
气压 1007 hPa
能見度: 16.1公里
天空无云

METAR: KMOT 010254Z 15010KT 10SM CLR 23/15 A2974 RMK AO2 SLP064 T02330150 56006

时间: 22:24 (03:24 UTC)

预报

该预报发布于38分钟前的02:46 UTC
预报有效从01日的 03点(UTC)到 01日的 24点(UTC)
风速11节,风向南转南东,有时为16节阵风
能見度: 10公里
少量云层高于20000英尺
从 01日的 0400点(UTC)
风速13节,风向南转南东,有时为19节阵风
能見度: 10公里
阴天层高于20000英尺
从 01日的 0600点(UTC)
风速11节,风向南转南东,有时为17节阵风
能見度: 10公里
多云层高于12000英尺
多云层高于20000英尺
附近有阵雨
从 01日的 0800点(UTC)
风速9节,风向
能見度: 10公里
散云层高于11000英尺
从 01日的 1000点(UTC)
风速9节,风向西
能見度: 10公里
天空无云
从 01日的 1300点(UTC)
风速13节,风向西转西北,有时为21节阵风
能見度: 10公里
少量云层高于30000英尺
从 01日的 1800点(UTC)
风速16节,风向西转西北,有时为25节阵风
能見度: 10公里
少量云层高于30000英尺

TAF: KMOT 010246Z 0103/0124 15011G16KT P6SM FEW200 FM010400 15013G19KT P6SM OVC200 FM010600 16011G17KT P6SM VCSH BKN120 BKN200 FM010800 19009KT P6SM SCT110 FM011000 26009KT P6SM SKC FM011300 29013G21KT P6SM FEW300 FM011800 29016G25KT P6SM FEW300

超过4000个机场的气象观测和天气预报(METAR&TAF报告)。

可查询的气象台以黄色和红色小点在地图上表示。

将鼠标移到小点上方,可查看气象台名称。

然后点击查看天气观测和预报。

如需切换地图:点击带黑十字的绿色按钮放大地图;点击带横线的绿色按钮缩小地图;或者点击绿色箭头查看邻近地区的地图。


METAR-TAF: